Time;durP1;ratioP1;P1;durP2;ratioP2;P2;SDS_P1;SDS_P2;PMS_P1;PMS_P2;Temp;Humidity;BMP_temperature;BMP_pressure;BME280_temperature;BME280_humidity;BME280_pressure;Samples;Min_cycle;Max_cycle;Signal;HPM_P1;HPM_P2
2022/06/14 00:03:07;;;;;;;;;6.00;6.00;;;;;18.03;46.21;101383.09;5000505;28;45651;-78
2022/06/14 00:05:32;;;;;;;;;3.50;3.50;;;;;18.01;46.15;101394.78;4997944;28;46060;-77
2022/06/14 00:07:58;;;;;;;;;4.50;4.00;;;;;17.95;46.49;101387.88;5015424;28;45328;-77
2022/06/14 00:10:23;;;;;;;;;8.50;7.50;;;;;17.98;45.74;101394.91;5011820;28;45443;-77
2022/06/14 00:12:48;;;;;;;;;6.00;5.00;;;;;17.97;45.74;101387.81;5004060;28;45594;-77
2022/06/14 00:15:14;;;;;;;;;5.50;5.50;;;;;17.93;46.22;101387.94;4999371;28;51902;-77
2022/06/14 00:17:39;;;;;;;;;10.50;7.75;;;;;17.98;45.75;101389.56;4994275;28;45789;-78
2022/06/14 00:20:06;;;;;;;;;6.75;4.50;;;;;17.93;45.43;101387.94;4999143;28;45432;-78
2022/06/14 00:22:34;;;;;;;;;9.25;5.25;;;;;17.89;45.96;101391.63;5008674;28;45454;-77
2022/06/14 00:24:59;;;;;;;;;5.25;5.25;;;;;17.90;45.88;101398.75;5007279;28;45426;-77
2022/06/14 00:27:24;;;;;;;;;4.75;4.75;;;;;17.85;45.66;101387.28;5011291;28;45414;-77
2022/06/14 00:29:50;;;;;;;;;5.00;5.00;;;;;17.83;45.77;101397.19;5014237;28;45465;-76
2022/06/14 00:32:15;;;;;;;;;3.50;3.50;;;;;17.76;45.83;101395.66;5034819;28;45719;-78
2022/06/14 00:34:40;;;;;;;;;6.75;6.75;;;;;17.72;45.81;101388.72;5034875;28;45394;-78
2022/06/14 00:37:14;;;;;;;;;3.00;3.00;;;;;17.69;45.69;101396.84;5014745;28;45733;-77
2022/06/14 00:39:39;;;;;;;;;3.50;2.75;;;;;17.65;45.75;101389.84;5014998;28;45429;-78
2022/06/14 00:42:04;;;;;;;;;2.00;2.00;;;;;17.62;46.01;101393.50;5014530;28;45324;-77
2022/06/14 00:44:30;;;;;;;;;3.00;3.00;;;;;17.61;46.19;101391.75;5015281;28;45428;-77
2022/06/14 00:47:04;;;;;;;;;5.75;3.50;;;;;17.62;45.90;101398.84;5007011;28;45235;-77
2022/06/14 00:50:04;;;;;;;;;2.00;2.00;;;;;17.59;46.50;101397.16;4998898;28;45442;-77
2022/06/14 00:52:37;;;;;;;;;3.50;2.00;;;;;17.55;46.37;101397.31;4996134;28;45499;-77
2022/06/14 00:55:42;;;;;;;;;2.25;2.25;;;;;17.60;46.71;101398.03;4991635;28;45545;-77
2022/06/14 00:58:14;;;;;;;;;3.00;3.00;;;;;17.55;46.68;101387.53;4932890;28;45575;-76
2022/06/14 01:00:51;;;;;;;;;2.75;2.75;;;;;17.55;46.52;101381.28;4933558;28;45367;-77
2022/06/14 01:03:21;;;;;;;;;6.50;5.00;;;;;17.52;46.39;101382.28;4933178;28;45608;-77
2022/06/14 01:06:05;;;;;;;;;2.50;2.50;;;;;17.50;46.75;101389.47;4932926;28;45418;-77
2022/06/14 01:08:34;;;;;;;;;3.50;2.50;;;;;17.41;46.73;101381.78;4919968;28;45608;-77
2022/06/14 01:10:59;;;;;;;;;3.00;3.00;;;;;17.44;46.90;101389.69;4914679;28;45507;-76
2022/06/14 01:13:25;;;;;;;;;5.00;5.00;;;;;17.38;46.93;101382.78;4914801;28;45612;-78
2022/06/14 01:15:53;;;;;;;;;5.75;5.00;;;;;17.29;46.83;101371.53;4920873;28;45938;-77
2022/06/14 01:18:19;;;;;;;;;9.50;5.75;;;;;17.29;46.90;101376.88;4924382;28;45538;-76
2022/06/14 01:20:45;;;;;;;;;10.50;9.25;;;;;17.27;47.01;101384.94;4921385;28;45462;-78
2022/06/14 01:23:14;;;;;;;;;6.00;6.00;;;;;17.20;47.22;101368.28;4915776;28;45513;-77
2022/06/14 01:25:46;;;;;;;;;8.75;8.75;;;;;17.18;47.25;101375.44;4918190;28;48014;-77
2022/06/14 01:28:15;;;;;;;;;6.50;6.50;;;;;17.11;47.53;101365.94;4922659;28;45418;-78
2022/06/14 01:30:48;;;;;;;;;13.00;10.75;;;;;17.14;47.33;101381.84;4898267;28;46320;-77
2022/06/14 01:33:25;;;;;;;;;11.75;9.50;;;;;17.08;47.66;101367.81;4943226;28;45710;-77
2022/06/14 01:35:56;;;;;;;;;6.25;6.25;;;;;17.10;47.59;101366.00;4994480;28;46601;-77
2022/06/14 01:38:22;;;;;;;;;6.25;6.25;;;;;17.09;47.88;101370.44;4994487;28;45491;-77
2022/06/14 01:41:11;;;;;;;;;9.00;6.00;;;;;17.09;47.95;101374.91;4994223;28;45543;-77
2022/06/14 01:43:51;;;;;;;;;4.00;3.00;;;;;17.02;47.83;101372.47;4994444;28;45445;-77
2022/06/14 01:46:29;;;;;;;;;5.00;2.75;;;;;16.97;47.52;101370.88;5000701;28;45622;-77
2022/06/14 01:52:19;;;;;;;;;3.00;3.00;;;;;16.91;48.05;101357.72;4998451;28;45535;-77
2022/06/14 01:55:06;;;;;;;;;3.50;3.50;;;;;16.84;48.03;101352.56;5000218;28;45367;-77
2022/06/14 01:57:41;;;;;;;;;4.25;1.50;;;;;16.80;48.17;101345.56;5015743;28;46914;-76
2022/06/14 02:00:16;;;;;;;;;3.00;3.00;;;;;16.70;48.78;101354.81;5021533;28;45455;-77
2022/06/14 02:02:52;;;;;;;;;3.00;2.00;;;;;16.62;49.11;101354.19;4997017;28;45284;-78
2022/06/14 02:05:28;;;;;;;;;3.00;2.00;;;;;16.50;49.31;101340.34;5004181;28;45385;-75
2022/06/14 02:08:06;;;;;;;;;2.00;2.00;;;;;16.41;49.39;101331.75;5017237;28;46306;-76
2022/06/14 02:11:00;;;;;;;;;2.25;2.25;;;;;16.41;49.66;101337.97;5017927;28;45415;-77
2022/06/14 02:13:39;;;;;;;;;2.75;2.00;;;;;16.38;49.73;101329.19;5016521;28;45504;-77
2022/06/14 02:16:13;;;;;;;;;5.00;3.00;;;;;16.35;49.78;101340.81;5019449;28;45542;-77
2022/06/14 02:18:42;;;;;;;;;1.75;1.75;;;;;16.36;49.87;101337.25;5024027;28;45455;-76
2022/06/14 02:21:23;;;;;;;;;5.75;4.75;;;;;16.34;49.95;101337.28;5017057;28;45550;-77
2022/06/14 02:24:13;;;;;;;;;5.00;2.50;;;;;16.31;49.66;101333.88;5016685;28;45510;-77
2022/06/14 02:26:46;;;;;;;;;2.00;2.00;;;;;16.23;50.17;101338.53;5010433;28;45458;-77
2022/06/14 02:29:25;;;;;;;;;0.00;0.00;;;;;16.22;50.45;101345.69;5016477;28;46667;-77
2022/06/14 02:31:58;;;;;;;;;3.00;2.00;;;;;16.15;50.37;101337.03;5016017;28;45396;-78
2022/06/14 02:34:33;;;;;;;;;2.25;2.00;;;;;16.11;51.12;101327.34;5016974;28;45494;-79
2022/06/14 02:37:11;;;;;;;;;2.75;2.75;;;;;16.12;50.78;101331.78;4996735;28;45525;-76
2022/06/14 02:39:47;;;;;;;;;1.75;1.75;;;;;16.09;50.81;101326.50;4996976;28;45455;-78
2022/06/14 02:42:30;;;;;;;;;1.25;1.25;;;;;16.07;51.07;101322.16;4996678;28;45296;-77
2022/06/14 02:45:14;;;;;;;;;4.00;1.25;;;;;16.07;51.13;101325.69;5008026;28;45434;-77
2022/06/14 02:48:02;;;;;;;;;1.00;1.00;;;;;16.08;51.46;101329.22;5022757;28;45334;-78
2022/06/14 02:50:38;;;;;;;;;1.00;1.00;;;;;16.10;51.31;101330.06;5016786;28;45440;-77
2022/06/14 02:53:09;;;;;;;;;3.00;1.00;;;;;16.06;51.24;101331.09;5016376;28;45502;-77
2022/06/14 02:55:43;;;;;;;;;5.50;1.00;;;;;15.95;51.51;101323.41;5020937;28;45500;-78
2022/06/14 02:58:14;;;;;;;;;2.25;2.25;;;;;15.92;51.51;101326.19;5033489;28;45424;-77
2022/06/14 03:00:48;;;;;;;;;1.75;1.75;;;;;15.85;52.04;101327.28;5016405;28;46010;-77
2022/06/14 03:03:46;;;;;;;;;1.00;1.00;;;;;15.81;51.70;101332.69;5015865;28;45393;-79
2022/06/14 03:06:20;;;;;;;;;3.25;1.50;;;;;15.80;52.18;101316.75;4981746;28;45479;-78
2022/06/14 03:08:54;;;;;;;;;2.25;1.75;;;;;15.81;52.47;101314.03;4974775;28;45471;-78
2022/06/14 03:11:37;;;;;;;;;2.75;1.25;;;;;15.84;52.13;101320.22;4977101;28;46004;-77
2022/06/14 03:14:29;;;;;;;;;1.00;1.00;;;;;15.79;52.46;101328.31;4979979;28;46158;-77
2022/06/14 03:17:44;;;;;;;;;1.75;1.75;;;;;15.73;52.36;101333.81;4981958;28;45499;-76
2022/06/14 03:20:22;;;;;;;;;2.00;2.00;;;;;15.72;52.71;101324.09;4974103;28;45497;-77
2022/06/14 03:23:11;;;;;;;;;2.50;2.50;;;;;15.71;52.39;101325.84;4974312;28;45430;-77
2022/06/14 03:26:05;;;;;;;;;2.50;2.50;;;;;15.64;52.67;101313.66;4977158;28;45683;-77
2022/06/14 03:28:43;;;;;;;;;2.25;2.00;;;;;15.63;52.61;101322.56;4974280;28;45413;-77
2022/06/14 03:31:41;;;;;;;;;1.50;1.50;;;;;15.60;53.17;101312.00;4957508;28;45618;-78
2022/06/14 03:34:41;;;;;;;;;5.50;2.50;;;;;15.56;52.96;101310.31;4962852;28;46314;-76
2022/06/14 03:37:08;;;;;;;;;2.75;1.25;;;;;15.55;53.15;101314.78;4988343;28;45796;-77
2022/06/14 03:39:44;;;;;;;;;2.00;2.00;;;;;15.51;52.89;101306.94;4967359;28;45391;-77
2022/06/14 03:42:11;;;;;;;;;3.00;1.75;;;;;15.54;53.20;101309.50;4989941;28;45433;-77
2022/06/14 03:44:38;;;;;;;;;1.75;1.75;;;;;15.55;53.05;101308.59;5003117;28;45454;-77
2022/06/14 03:47:09;;;;;;;;;2.50;2.50;;;;;15.54;53.31;101304.19;5027033;28;45409;-78
2022/06/14 03:49:36;;;;;;;;;2.25;2.25;;;;;15.52;53.32;101298.03;5036216;28;45382;-77
2022/06/14 03:52:27;;;;;;;;;1.50;1.50;;;;;15.50;53.55;101305.19;5035666;28;45596;-76
2022/06/14 03:55:15;;;;;;;;;2.00;2.00;;;;;15.49;53.57;101306.97;5035509;28;45454;-78
2022/06/14 03:57:57;;;;;;;;;3.50;2.00;;;;;15.49;53.67;101309.63;5001067;28;45571;-77
2022/06/14 04:00:40;;;;;;;;;4.75;2.75;;;;;15.40;53.78;101304.56;4997153;28;45440;-76
2022/06/14 04:03:22;;;;;;;;;3.00;2.25;;;;;15.36;53.89;101298.44;5015125;28;45304;-77
2022/06/14 04:06:10;;;;;;;;;4.00;2.75;;;;;15.44;53.79;101307.09;5016326;28;46452;-78
2022/06/14 04:08:55;;;;;;;;;3.00;3.00;;;;;15.42;53.81;101308.94;5021724;28;45308;-76
2022/06/14 04:11:36;;;;;;;;;2.00;2.00;;;;;15.49;53.77;101312.31;5015776;28;45531;-75
2022/06/14 04:14:18;;;;;;;;;5.00;2.00;;;;;15.52;53.66;101309.56;5018919;28;45411;-78
2022/06/14 04:16:54;;;;;;;;;1.00;1.00;;;;;15.63;54.05;101317.22;5027268;28;45446;-78
2022/06/14 04:19:42;;;;;;;;;6.00;6.00;;;;;15.96;52.84;101314.50;5012327;28;45527;-78
2022/06/14 04:22:23;;;;;;;;;4.00;1.75;;;;;16.50;51.57;101305.66;5015156;28;45368;-78
2022/06/14 04:24:58;;;;;;;;;2.00;2.00;;;;;17.05;50.27;101312.75;5014539;28;45569;-77
2022/06/14 04:27:47;;;;;;;;;2.00;2.00;;;;;17.52;48.97;101310.13;5005497;28;46180;-76
2022/06/14 04:30:20;;;;;;;;;1.50;1.50;;;;;18.11;47.56;101305.22;5014675;28;45646;-78
2022/06/14 04:32:48;;;;;;;;;7.25;5.50;;;;;18.58;46.30;101313.09;5014392;28;45497;-77
2022/06/14 04:35:27;;;;;;;;;5.50;3.50;;;;;18.98;45.70;101295.38;5014926;28;45436;-77
2022/06/14 04:38:14;;;;;;;;;3.75;3.75;;;;;19.49;43.95;101297.59;5008738;28;45525;-77
2022/06/14 04:40:47;;;;;;;;;1.25;1.00;;;;;19.98;43.46;101284.59;4995407;28;45508;-78
2022/06/14 04:43:52;;;;;;;;;2.50;2.50;;;;;20.70;41.82;101301.63;4998354;28;45437;-77
2022/06/14 04:46:29;;;;;;;;;6.25;3.50;;;;;21.29;40.86;101293.22;4999414;28;45480;-78
2022/06/14 04:48:58;;;;;;;;;2.00;2.00;;;;;21.73;39.48;101284.56;5017768;28;46154;-78
2022/06/14 04:51:33;;;;;;;;;3.25;2.00;;;;;22.14;38.76;101294.81;5009828;28;45437;-77
2022/06/14 04:54:13;;;;;;;;;2.00;2.00;;;;;22.41;37.58;101283.44;5014386;28;45332;-78
2022/06/14 04:56:54;;;;;;;;;2.75;2.75;;;;;22.70;37.69;101291.63;5013980;28;45399;-78
2022/06/14 04:59:29;;;;;;;;;2.00;2.00;;;;;22.77;37.44;101284.88;5012999;28;45529;-79
2022/06/14 05:02:01;;;;;;;;;2.25;2.25;;;;;23.02;36.43;101288.78;5014818;28;45350;-78
2022/06/14 05:04:34;;;;;;;;;1.50;1.50;;;;;23.15;36.57;101276.31;5034694;28;45448;-78
2022/06/14 05:07:15;;;;;;;;;2.00;2.00;;;;;23.54;35.60;101282.00;5026142;28;45366;-78
2022/06/14 05:09:48;;;;;;;;;2.00;2.00;;;;;23.69;35.46;101274.75;5016023;28;46223;-78
2022/06/14 05:12:18;;;;;;;;;3.00;3.00;;;;;24.14;34.74;101264.63;5018134;28;45304;-79
2022/06/14 05:14:55;;;;;;;;;1.75;1.75;;;;;24.38;33.94;101266.69;4994610;28;45341;-78
2022/06/14 05:17:29;;;;;;;;;2.00;2.00;;;;;24.57;33.26;101271.72;5006932;28;45635;-78
2022/06/14 05:20:02;;;;;;;;;2.50;1.25;;;;;24.94;33.45;101271.88;5012246;28;45417;-78
2022/06/14 05:22:38;;;;;;;;;2.50;2.00;;;;;25.10;32.99;101268.97;5012298;28;45525;-78
2022/06/14 05:25:07;;;;;;;;;2.75;2.75;;;;;25.29;32.93;101274.84;5017611;28;45478;-77
2022/06/14 05:27:56;;;;;;;;;2.00;2.00;;;;;24.88;33.10;101269.63;5004042;28;45452;-78
2022/06/14 05:30:53;;;;;;;;;3.75;2.75;;;;;24.83;33.40;101272.63;4999424;28;45514;-79
2022/06/14 05:33:26;;;;;;;;;3.75;2.00;;;;;25.00;32.60;101258.78;5014089;28;45411;-78
2022/06/14 05:36:04;;;;;;;;;2.25;2.25;;;;;25.30;32.38;101270.31;5019799;28;45372;-78
2022/06/14 05:38:53;;;;;;;;;1.75;1.75;;;;;25.35;32.81;101271.69;5020201;28;45478;-78
2022/06/14 05:41:33;;;;;;;;;2.00;2.00;;;;;25.54;32.17;101281.22;5017564;28;45362;-78
2022/06/14 05:44:13;;;;;;;;;2.00;2.00;;;;;25.68;31.97;101267.53;5019755;28;45403;-78
2022/06/14 05:46:51;;;;;;;;;3.25;3.25;;;;;26.10;31.14;101277.16;5015162;28;45570;-78
2022/06/14 05:49:25;;;;;;;;;2.50;2.00;;;;;26.57;30.55;101273.59;5017148;28;45431;-78
2022/06/14 05:52:11;;;;;;;;;3.00;3.00;;;;;27.30;29.82;101282.38;5002071;28;46573;-79
2022/06/14 05:54:47;;;;;;;;;2.75;2.75;;;;;27.47;29.72;101275.63;4997301;28;45496;-77
2022/06/14 05:57:27;;;;;;;;;4.00;2.00;;;;;27.68;30.08;101280.31;4997210;28;45483;-77
2022/06/14 06:00:06;;;;;;;;;4.00;3.00;;;;;27.96;28.44;101278.06;5012460;28;45506;-77
2022/06/14 06:02:50;;;;;;;;;3.00;3.00;;;;;28.21;28.19;101267.88;5016966;28;45419;-78
2022/06/14 06:05:31;;;;;;;;;4.25;2.00;;;;;28.49;27.89;101267.25;5017627;28;45321;-78
2022/06/14 06:08:09;;;;;;;;;3.00;2.00;;;;;28.60;27.57;101271.81;5030347;28;45458;-80
2022/06/14 06:10:38;;;;;;;;;2.00;2.00;;;;;28.24;27.61;101270.31;5023041;28;45506;-78
2022/06/14 06:13:29;;;;;;;;;2.00;2.00;;;;;28.34;27.87;101257.69;5018738;28;46353;-78
2022/06/14 06:16:01;;;;;;;;;3.00;3.00;;;;;28.65;27.14;101264.13;5017194;28;45407;-77
2022/06/14 06:18:34;;;;;;;;;2.75;2.75;;;;;28.64;27.34;101266.97;5016211;28;45561;-78
2022/06/14 06:21:36;;;;;;;;;3.75;2.75;;;;;29.05;27.27;101259.78;4996464;28;45451;-79
2022/06/14 06:24:11;;;;;;;;;5.50;3.50;;;;;29.12;26.41;101247.34;4993832;28;46251;-78
2022/06/14 06:26:43;;;;;;;;;2.00;2.00;;;;;29.67;26.81;101249.75;4994363;28;45583;-78
2022/06/14 06:29:16;;;;;;;;;4.00;3.00;;;;;29.64;25.41;101254.59;4980887;28;45421;-77
2022/06/14 06:31:45;;;;;;;;;2.50;2.50;;;;;29.48;26.36;101249.69;4976118;28;45722;-76
2022/06/14 06:34:14;;;;;;;;;2.00;2.00;;;;;28.83;26.85;101244.47;4958417;28;45390;-76
2022/06/14 06:36:54;;;;;;;;;3.00;2.50;;;;;28.86;26.48;101245.09;4959158;28;45426;-76
2022/06/14 06:39:30;;;;;;;;;3.50;3.50;;;;;28.64;27.38;101245.22;4979656;28;45477;-76
2022/06/14 06:42:00;;;;;;;;;2.75;2.75;;;;;28.47;27.07;101243.91;4978071;28;45409;-77
2022/06/14 06:44:30;;;;;;;;;3.50;2.00;;;;;28.51;26.61;101238.09;4975810;28;45554;-76
2022/06/14 06:47:09;;;;;;;;;2.00;1.00;;;;;28.44;26.92;101245.06;4974842;28;45365;-77
2022/06/14 06:50:00;;;;;;;;;2.25;1.25;;;;;28.46;27.48;101259.34;4975138;28;45464;-76
2022/06/14 06:52:56;;;;;;;;;1.50;1.50;;;;;28.37;27.15;101246.56;4935425;28;45336;-78
2022/06/14 06:55:36;;;;;;;;;2.00;1.75;;;;;28.27;27.46;101248.31;4950156;28;45486;-77
2022/06/14 06:58:13;;;;;;;;;3.75;3.75;;;;;28.19;27.20;101247.09;4946743;28;45547;-77
2022/06/14 07:00:41;;;;;;;;;4.25;3.25;;;;;28.30;27.51;101248.06;4944511;28;45328;-76
2022/06/14 07:03:21;;;;;;;;;3.25;3.00;;;;;28.73;27.13;101246.25;4944200;28;45535;-77
2022/06/14 07:06:00;;;;;;;;;1.50;1.00;;;;;29.40;26.39;101237.63;4940674;28;46149;-77
2022/06/14 07:08:52;;;;;;;;;1.00;1.00;;;;;29.17;26.43;101236.09;4954519;28;45589;-77
2022/06/14 07:11:22;;;;;;;;;3.00;3.00;;;;;28.94;26.24;101246.25;4943294;28;45476;-77
2022/06/14 07:14:10;;;;;;;;;3.00;3.00;;;;;29.10;27.75;101241.19;4948005;28;45511;-76
2022/06/14 07:16:49;;;;;;;;;3.00;3.00;;;;;29.47;26.13;101235.25;4948108;28;46452;-77
2022/06/14 07:19:28;;;;;;;;;3.00;3.00;;;;;29.39;25.96;101235.06;4943476;28;45456;-76
2022/06/14 07:22:13;;;;;;;;;3.00;3.00;;;;;29.54;26.76;101240.97;4947725;28;45648;-76
2022/06/14 07:25:01;;;;;;;;;2.50;2.50;;;;;29.81;25.57;101232.19;4953436;28;45543;-75
2022/06/14 07:27:34;;;;;;;;;2.00;2.00;;;;;30.08;25.51;101233.38;4938050;28;45626;-77
2022/06/14 07:30:34;;;;;;;;;5.00;3.75;;;;;29.88;25.93;101232.47;4978340;28;45701;-77
2022/06/14 07:33:01;;;;;;;;;2.25;2.25;;;;;29.88;25.78;101217.03;4952412;28;45481;-76
2022/06/14 07:35:51;;;;;;;;;2.50;2.50;;;;;30.30;26.22;101224.91;4972413;28;45572;-76
2022/06/14 07:38:32;;;;;;;;;3.00;3.00;;;;;30.15;25.55;101229.06;4984216;28;46542;-76
2022/06/14 07:40:57;;;;;;;;;3.75;3.00;;;;;30.44;25.79;101222.78;4966825;28;45518;-75
2022/06/14 07:43:49;;;;;;;;;2.50;2.50;;;;;30.30;25.35;101218.59;4969892;28;45515;-77
2022/06/14 07:46:22;;;;;;;;;4.00;4.00;;;;;30.41;25.11;101220.34;4963666;28;45540;-76
2022/06/14 07:48:58;;;;;;;;;2.50;2.50;;;;;30.63;25.37;101219.19;4976465;28;46228;-75
2022/06/14 07:51:38;;;;;;;;;3.00;3.00;;;;;30.52;25.52;101213.88;4987659;28;45604;-75
2022/06/14 07:54:16;;;;;;;;;3.00;3.00;;;;;30.49;25.15;101217.78;4991925;28;45531;-78
2022/06/14 07:56:54;;;;;;;;;3.25;3.25;;;;;30.76;25.35;101207.94;4980119;28;45464;-76
2022/06/14 07:59:25;;;;;;;;;2.50;2.00;;;;;31.23;25.23;101220.72;4977838;28;46001;-77
2022/06/14 08:02:06;;;;;;;;;2.00;2.00;;;;;31.24;23.92;101214.28;4981229;28;45429;-76
2022/06/14 08:04:41;;;;;;;;;4.25;3.50;;;;;31.36;25.78;101205.72;4978359;28;45338;-75
2022/06/14 08:07:12;;;;;;;;;1.75;1.75;;;;;31.23;24.94;101199.75;4978361;28;45551;-74
2022/06/14 08:10:11;;;;;;;;;5.25;3.00;;;;;31.36;25.53;101193.94;4996542;28;45549;-76
2022/06/14 08:12:51;;;;;;;;;3.00;2.25;;;;;31.68;24.29;101193.50;5013493;28;45444;-75
2022/06/14 08:15:23;;;;;;;;;2.75;2.75;;;;;32.08;24.30;101183.13;5015320;28;45462;-76
2022/06/14 08:17:51;;;;;;;;;3.00;3.00;;;;;32.21;24.03;101182.78;5009416;28;45518;-76
2022/06/14 08:20:26;;;;;;;;;4.50;3.50;;;;;32.85;23.80;101179.81;5019188;28;46094;-75
2022/06/14 08:22:57;;;;;;;;;4.25;4.25;;;;;32.56;22.88;101181.84;5017053;28;45478;-76
2022/06/14 08:25:28;;;;;;;;;4.00;4.00;;;;;32.17;23.70;101181.34;5014820;28;45455;-76
2022/06/14 08:28:15;;;;;;;;;2.25;2.25;;;;;31.97;23.75;101180.63;5017097;28;45456;-76
2022/06/14 08:31:04;;;;;;;;;2.00;2.00;;;;;31.94;24.34;101176.34;5016105;28;45786;-81
2022/06/14 08:33:33;;;;;;;;;3.00;3.00;;;;;32.04;23.75;101179.84;5013932;28;45498;-81
2022/06/14 08:36:06;;;;;;;;;2.25;2.25;;;;;32.24;23.85;101179.72;5012226;28;45665;-81
2022/06/14 08:39:10;;;;;;;;;2.00;2.00;;;;;32.44;24.09;101172.19;5011573;28;45688;-81
2022/06/14 08:41:49;;;;;;;;;3.75;2.75;;;;;32.74;22.71;101173.59;4950948;28;46319;-81
2022/06/14 08:44:19;;;;;;;;;7.50;6.50;;;;;32.60;22.75;101182.38;4955547;28;45459;-81
2022/06/14 08:47:26;;;;;;;;;5.50;3.00;;;;;32.51;22.95;101164.19;4954297;28;45627;-79
2022/06/14 08:50:10;;;;;;;;;2.50;2.50;;;;;32.41;22.94;101162.41;4948156;28;45535;-81
2022/06/14 08:53:00;;;;;;;;;3.25;2.50;;;;;32.79;23.36;101164.06;4953400;28;45750;-80
2022/06/14 08:55:53;;;;;;;;;3.00;2.50;;;;;32.93;23.43;101166.19;4939790;28;45608;-79
2022/06/14 08:58:39;;;;;;;;;2.00;2.00;;;;;33.12;23.49;101165.09;4957363;28;45807;-79
2022/06/14 09:01:29;;;;;;;;;3.75;2.25;;;;;33.46;22.89;101162.31;4956796;28;45338;-80
2022/06/14 09:04:24;;;;;;;;;4.25;2.00;;;;;33.85;21.86;101171.00;4965925;28;46201;-77
2022/06/14 09:07:17;;;;;;;;;2.50;1.00;;;;;33.59;21.01;101171.94;4962794;28;45568;-78
2022/06/14 09:10:11;;;;;;;;;2.00;2.00;;;;;33.54;21.23;101180.66;4953395;28;45762;-79
2022/06/14 09:13:03;;;;;;;;;2.00;2.00;;;;;33.02;22.40;101169.81;4963210;28;45678;-78
2022/06/14 09:16:03;;;;;;;;;2.00;2.00;;;;;33.47;22.06;101182.34;4988086;28;45570;-78
2022/06/14 09:18:43;;;;;;;;;4.00;2.25;;;;;33.20;22.18;101167.03;5019164;28;45439;-80
2022/06/14 09:21:16;;;;;;;;;3.00;2.75;;;;;33.44;22.33;101164.38;5019696;28;45458;-79
2022/06/14 09:23:59;;;;;;;;;3.75;2.25;;;;;34.00;21.94;101161.06;5016355;28;45409;-80
2022/06/14 09:26:30;;;;;;;;;3.00;3.00;;;;;33.99;20.86;101162.94;5013875;28;46155;-80
2022/06/14 09:29:21;;;;;;;;;2.00;2.00;;;;;33.79;22.78;101164.31;5001684;28;45541;-80
2022/06/14 09:32:12;;;;;;;;;2.00;2.00;;;;;34.35;20.92;101154.41;5007432;28;45558;-79
2022/06/14 09:34:47;;;;;;;;;2.00;2.00;;;;;34.41;20.65;101150.13;5018057;28;45490;-78
2022/06/14 09:37:39;;;;;;;;;4.00;3.50;;;;;34.52;20.50;101146.16;5005030;28;45384;-79
2022/06/14 09:40:16;;;;;;;;;2.75;2.75;;;;;34.71;20.72;101155.84;4991081;28;45544;-79
2022/06/14 09:43:00;;;;;;;;;2.25;1.00;;;;;35.17;20.56;101150.59;4991205;28;45604;-81
2022/06/14 09:45:49;;;;;;;;;1.75;1.00;;;;;35.02;19.97;101141.41;4990902;28;45453;-81
2022/06/14 09:48:23;;;;;;;;;1.25;1.25;;;;;35.03;20.36;101152.19;4993282;28;46153;-81
2022/06/14 09:51:01;;;;;;;;;3.00;3.00;;;;;34.53;20.20;101159.69;4997523;28;45403;-81
2022/06/14 09:53:59;;;;;;;;;2.00;2.00;;;;;34.37;20.59;101153.38;4999666;28;45556;-80
2022/06/14 09:57:02;;;;;;;;;4.50;4.25;;;;;34.39;20.75;101156.78;4980126;28;45575;-80
2022/06/14 10:00:00;;;;;;;;;4.00;3.00;;;;;33.81;21.47;101160.38;5000855;28;46077;-80
2022/06/14 10:02:37;;;;;;;;;5.25;4.75;;;;;34.12;20.91;101153.38;4942671;28;45450;-80
2022/06/14 10:05:13;;;;;;;;;2.00;2.00;;;;;33.93;20.25;101146.34;5001389;28;45748;-81
2022/06/14 10:07:45;;;;;;;;;4.00;3.00;;;;;34.30;20.52;101144.97;5001386;28;45487;-80
2022/06/14 10:10:32;;;;;;;;;4.50;4.50;;;;;34.52;21.29;101130.53;4981393;28;46659;-79
2022/06/14 10:13:34;;;;;;;;;6.00;3.25;;;;;34.50;21.08;101145.47;4998843;28;45629;-81
2022/06/14 10:16:26;;;;;;;;;5.00;3.00;;;;;34.84;21.29;101131.50;4993138;28;45579;-80
2022/06/14 10:19:25;;;;;;;;;6.00;4.50;;;;;34.36;20.37;101141.53;5017366;28;45759;-80
2022/06/14 10:22:22;;;;;;;;;2.75;2.75;;;;;34.21;20.41;101135.00;5010720;28;45557;-81
2022/06/14 10:24:57;;;;;;;;;3.00;3.00;;;;;34.24;20.03;101120.94;5011732;28;45466;-80
2022/06/14 10:30:32;;;;;;;;;3.75;3.75;;;;;34.34;19.68;101151.81;5023007;28;45414;-78
2022/06/14 10:33:12;;;;;;;;;2.75;2.75;;;;;34.05;21.33;101136.72;5023751;28;46347;-84
2022/06/14 10:36:33;;;;;;;;;3.00;3.00;;;;;33.57;21.05;101135.63;5022165;28;45642;-83
2022/06/14 10:39:33;;;;;;;;;4.25;3.75;;;;;33.30;22.07;101134.91;4953376;28;45442;-81
2022/06/14 10:42:06;;;;;;;;;3.50;3.50;;;;;33.97;21.44;101131.25;4976910;28;45585;-81
2022/06/14 10:45:09;;;;;;;;;5.00;5.00;;;;;34.38;21.01;101128.53;4987671;28;45506;-76
2022/06/14 10:47:40;;;;;;;;;7.00;7.00;;;;;33.73;20.15;101123.88;4972966;28;45890;-77
2022/06/14 10:50:09;;;;;;;;;4.00;4.00;;;;;33.74;21.49;101114.63;4979082;28;45575;-78
2022/06/14 10:52:54;;;;;;;;;5.50;5.00;;;;;34.06;19.92;101108.31;4975152;28;45530;-77
2022/06/14 10:55:34;;;;;;;;;2.25;2.25;;;;;33.96;20.60;101102.13;4971818;28;46335;-77
2022/06/14 10:58:17;;;;;;;;;2.00;2.00;;;;;34.13;20.99;101109.34;4974524;28;45594;-77
2022/06/14 11:01:11;;;;;;;;;3.50;3.00;;;;;33.92;20.62;101100.75;4983984;28;45588;-78
2022/06/14 11:04:06;;;;;;;;;3.00;3.00;;;;;33.18;21.44;101092.41;4981839;28;45464;-77
2022/06/14 11:07:13;;;;;;;;;8.50;8.50;;;;;32.65;21.29;101102.56;4937011;28;46414;-87
2022/06/14 11:09:46;;;;;;;;;8.00;6.75;;;;;32.14;22.06;101099.69;4914841;28;46262;-78
2022/06/14 11:12:30;;;;;;;;;7.75;7.50;;;;;32.38;21.87;101097.09;4933316;28;45338;-77
2022/06/14 11:15:03;;;;;;;;;5.00;3.00;;;;;32.92;21.60;101083.22;4942429;28;45480;-76
2022/06/14 11:18:00;;;;;;;;;5.00;5.00;;;;;33.27;20.95;101080.47;4956942;28;46392;-75
2022/06/14 11:20:31;;;;;;;;;4.75;3.25;;;;;33.47;20.90;101075.53;4931313;28;45493;-78
2022/06/14 11:23:18;;;;;;;;;4.00;4.00;;;;;33.56;21.01;101068.19;4947243;28;45539;-75
2022/06/14 11:26:07;;;;;;;;;4.00;3.50;;;;;33.31;21.48;101067.28;4954083;28;45631;-75
2022/06/14 11:28:36;;;;;;;;;4.50;3.00;;;;;33.21;21.31;101076.50;4943400;28;46512;-76
2022/06/14 11:31:29;;;;;;;;;5.50;4.00;;;;;33.11;20.99;101060.19;4957945;28;45575;-74
2022/06/14 11:34:22;;;;;;;;;44.75;38.25;;;;;32.84;21.09;101057.72;4960243;28;45566;-74
2022/06/14 11:37:27;;;;;;;;;4.50;4.00;;;;;32.21;21.58;101057.88;4955379;28;45595;-78
2022/06/14 11:39:58;;;;;;;;;3.50;3.50;;;;;32.19;22.48;101059.91;4883941;29;45608;-78
2022/06/14 11:42:32;;;;;;;;;4.00;4.00;;;;;32.46;22.38;101055.28;4875225;29;45574;-78
2022/06/14 11:45:04;;;;;;;;;4.00;4.00;;;;;32.78;22.42;101034.59;4958135;28;45491;-77
2022/06/14 11:47:34;;;;;;;;;10.25;9.00;;;;;32.72;22.47;101033.41;4963207;28;45650;-76
2022/06/14 11:50:21;;;;;;;;;4.25;4.25;;;;;32.47;21.84;101028.81;4953092;28;46390;-85
2022/06/14 11:53:12;;;;;;;;;5.00;5.00;;;;;32.19;22.38;101021.66;4950595;28;46055;-78
2022/06/14 11:55:52;;;;;;;;;4.50;4.00;;;;;31.53;22.40;101031.16;4957921;28;45591;-83
2022/06/14 11:58:54;;;;;;;;;7.25;5.75;;;;;31.34;22.69;101038.50;4959012;28;45342;-76
2022/06/14 12:01:31;;;;;;;;;8.75;8.50;;;;;30.65;23.35;101027.09;4899102;28;46231;-77
2022/06/14 12:04:13;;;;;;;;;6.50;5.25;;;;;30.57;24.90;101018.84;4894658;28;45407;-77
2022/06/14 12:06:57;;;;;;;;;4.75;4.75;;;;;30.62;23.59;101016.50;4895264;28;45557;-76
2022/06/14 12:09:41;;;;;;;;;5.25;4.00;;;;;30.27;24.45;101022.66;4891119;28;45582;-76
2022/06/14 12:12:09;;;;;;;;;3.00;3.00;;;;;30.08;24.50;101023.59;4893852;28;46391;-76
2022/06/14 12:14:53;;;;;;;;;5.50;5.50;;;;;29.78;25.41;101020.88;4896576;28;45505;-77
2022/06/14 12:18:01;;;;;;;;;4.75;4.00;;;;;29.71;24.67;101021.59;4897828;28;45496;-75
2022/06/14 12:20:27;;;;;;;;;5.00;3.50;;;;;29.43;25.14;101021.47;4892236;28;45362;-77
2022/06/14 12:23:17;;;;;;;;;5.00;4.00;;;;;29.12;25.41;101010.66;4895054;28;45507;-76
2022/06/14 12:29:24;;;;;;;;;4.00;4.00;;;;;28.63;25.97;101009.69;4902147;28;45498;-75
2022/06/14 12:32:02;;;;;;;;;3.50;2.75;;;;;28.55;26.64;100994.03;4908057;28;45690;-75
2022/06/14 12:34:41;;;;;;;;;3.00;3.00;;;;;28.75;26.15;100989.56;4980735;28;45438;-76